< < Back
Terminal Aerodrome Forecast


Current Version              Previous Versions:   1  2  3  4  5  6  7  8  9  

Terminal Aerodrome Forecast

581
FTUS44 KOHX 251003 AAA
TAFBNA
TAF AMD
KBNA 251003Z 2510/2606 00000KT P6SM SKC
     FM251300 33005KT P6SM SCT250=

Latest METAR

021
SAUS70 KWBC 251200 RRG
MTRBNA
METAR KBNA 251153Z 00000KT 7SM BKN160 24/22 A3011 RMK AO2 SLP188
T02390217 10250 20228 53014


USA.gov is the U.S. government's official web portal to all federal, state and local government web resources and services.